Time;durP1;ratioP1;P1;durP2;ratioP2;P2;SDS_P1;SDS_P2;PMS_P1;PMS_P2;Temp;Humidity;BMP_temperature;BMP_pressure;BME280_temperature;BME280_humidity;BME280_pressure;Samples;Min_cycle;Max_cycle;Signal;HPM_P1;HPM_P2
2022/12/01 00:01:15;;;;;;;19.63;11.40;;;;;;;-1.57;85.63;96146.52;1752522;82;21007;-67
2022/12/01 00:03:42;;;;;;;20.70;11.43;;;;;;;-1.65;85.22;96149.67;1752732;82;21024;-67
2022/12/01 00:06:14;;;;;;;11.77;7.60;;;;;;;-1.77;85.53;96152.67;1752572;82;21008;-67
2022/12/01 00:11:14;;;;;;;12.58;8.00;;;;;;;-1.71;86.45;96161.06;1704649;82;20992;-67
2022/12/01 00:13:41;;;;;;;13.73;7.63;;;;;;;-1.67;86.25;96158.66;1752361;82;21067;-67
2022/12/01 00:16:15;;;;;;;11.47;7.27;;;;;;;-1.78;85.57;96156.97;1752627;82;20990;-67
2022/12/01 00:18:43;;;;;;;13.27;7.43;;;;;;;-1.78;85.88;96161.27;1752752;82;20992;-67
2022/12/01 00:21:18;;;;;;;12.77;7.93;;;;;;;-1.80;85.87;96162.48;1752487;82;21059;-67
2022/12/01 00:23:48;;;;;;;11.80;7.63;;;;;;;-1.84;85.65;96158.05;1752645;82;20980;-67
2022/12/01 00:26:17;;;;;;;10.77;6.97;;;;;;;-1.92;85.58;96159.85;1752630;82;21031;-67
2022/12/01 00:28:50;;;;;;;10.47;7.23;;;;;;;-1.93;85.78;96165.44;1752494;82;21028;-67
2022/12/01 00:31:17;;;;;;;12.20;6.65;;;;;;;-1.81;86.86;96164.63;1752579;82;21012;-67
2022/12/01 00:33:44;;;;;;;10.97;7.03;;;;;;;-1.73;86.49;96169.20;1752730;82;21004;-67
2022/12/01 00:36:11;;;;;;;14.03;7.10;;;;;;;-1.81;85.81;96162.03;1752243;82;21151;-67
2022/12/01 00:38:38;;;;;;;10.23;6.63;;;;;;;-1.84;85.65;96168.39;1753920;82;21032;-67
2022/12/01 00:41:05;;;;;;;15.47;8.20;;;;;;;-1.92;85.38;96165.90;1755497;82;21071;-67
2022/12/01 00:43:32;;;;;;;16.13;8.67;;;;;;;-2.02;85.29;96164.66;1755142;82;21032;-67
2022/12/01 00:45:59;;;;;;;11.83;7.60;;;;;;;-1.98;86.31;96165.26;1755263;82;21032;-67
2022/12/01 00:48:26;;;;;;;11.93;7.37;;;;;;;-1.88;86.40;96169.08;1755340;81;20976;-67
2022/12/01 00:50:54;;;;;;;12.50;7.77;;;;;;;-1.87;86.00;96159.19;1755132;81;21000;-67
2022/12/01 00:53:23;;;;;;;12.37;8.10;;;;;;;-1.89;85.70;96161.25;1755548;81;21450;-67
2022/12/01 00:55:52;;;;;;;15.10;7.90;;;;;;;-1.89;85.98;96165.13;1755717;81;21083;-67
2022/12/01 00:58:20;;;;;;;15.20;8.57;;;;;;;-1.88;85.72;96163.03;1755645;82;21059;-68
2022/12/01 01:00:47;;;;;;;12.47;7.27;;;;;;;-1.93;85.74;96158.98;1755259;82;21490;-67
2022/12/01 01:03:14;;;;;;;11.87;7.03;;;;;;;-2.00;85.38;96156.55;1755537;81;21011;-67
2022/12/01 01:05:42;;;;;;;11.53;7.27;;;;;;;-2.05;85.33;96155.91;1755143;82;21040;-67
2022/12/01 01:08:13;;;;;;;10.40;7.07;;;;;;;-2.10;85.47;96154.86;1755254;82;21004;-67
2022/12/01 01:10:44;;;;;;;10.33;6.87;;;;;;;-2.09;86.12;96150.14;1755264;82;21024;-67
2022/12/01 01:13:12;;;;;;;11.73;7.17;;;;;;;-1.98;86.70;96144.57;1755498;81;20968;-67
2022/12/01 01:15:39;;;;;;;12.63;7.60;;;;;;;-1.90;86.15;96138.39;1755524;82;20992;-67
2022/12/01 01:18:08;;;;;;;15.07;7.80;;;;;;;-1.89;85.77;96137.98;1755723;82;20988;-67
2022/12/01 01:20:35;;;;;;;12.80;6.80;;;;;;;-1.96;85.64;96135.59;1755448;82;21064;-67
2022/12/01 01:23:02;;;;;;;14.10;7.73;;;;;;;-2.04;85.49;96136.98;1755469;82;21028;-67
2022/12/01 01:25:31;;;;;;;14.27;7.93;;;;;;;-2.07;85.46;96138.16;1755671;81;21008;-67
2022/12/01 01:27:58;;;;;;;11.63;7.33;;;;;;;-1.95;86.95;96141.22;1755586;82;21514;-67
2022/12/01 01:30:25;;;;;;;13.00;7.47;;;;;;;-1.84;87.11;96136.06;1755333;82;21035;-67
2022/12/01 01:32:52;;;;;;;10.60;6.50;;;;;;;-1.81;85.85;96141.34;1755477;81;20996;-67
2022/12/01 01:35:19;;;;;;;11.97;7.80;;;;;;;-1.92;84.76;96137.87;1755368;82;21048;-67
2022/12/01 01:37:46;;;;;;;11.33;7.10;;;;;;;-2.01;85.18;96136.70;1755535;81;21012;-68
2022/12/01 01:40:13;;;;;;;9.33;6.53;;;;;;;-1.97;85.83;96136.02;1755268;81;21565;-67
2022/12/01 01:42:39;;;;;;;14.37;7.20;;;;;;;-1.97;85.40;96140.27;1755640;81;21473;-67
2022/12/01 01:45:22;;;;;;;13.83;7.30;;;;;;;-2.07;84.94;96131.70;1755409;81;21031;-67
2022/12/01 01:47:52;;;;;;;12.73;7.80;;;;;;;-2.09;85.26;96126.48;1755561;81;21027;-67
2022/12/01 01:50:23;;;;;;;12.87;7.60;;;;;;;-2.05;85.95;96121.88;1755585;82;21004;-67
2022/12/01 01:53:07;;;;;;;13.20;7.23;;;;;;;-2.03;85.78;96123.25;1755561;81;21039;-67
2022/12/01 01:55:34;;;;;;;;;;;;;;;-2.04;85.46;96126.63;1757783;82;21099;-67
2022/12/01 01:58:04;;;;;;;12.83;7.17;;;;;;;-2.08;85.58;96128.66;1755735;82;20110;-67
2022/12/01 02:00:31;;;;;;;12.27;7.20;;;;;;;-2.11;85.37;96132.42;1755393;82;20992;-67
2022/12/01 02:02:59;;;;;;;12.00;6.63;;;;;;;-2.24;84.94;96135.82;1755108;81;20988;-67
2022/12/01 02:05:30;;;;;;;11.63;6.97;;;;;;;-2.23;85.59;96132.40;1755554;82;20996;-67
2022/12/01 02:07:58;;;;;;;10.83;6.53;;;;;;;-2.16;85.83;96128.78;1755626;81;21042;-67
2022/12/01 02:10:30;;;;;;;9.60;6.67;;;;;;;-2.17;85.73;96127.88;1755598;81;21051;-67
2022/12/01 02:13:37;;;;;;;10.47;6.50;;;;;;;-2.08;86.33;96132.53;1754914;82;21058;-67
2022/12/01 02:16:27;;;;;;;9.97;6.47;;;;;;;-2.02;86.16;96134.92;1755136;81;21114;-68
2022/12/01 02:19:11;;;;;;;10.43;5.60;;;;;;;-2.01;85.85;96138.41;1755539;81;21020;-68
2022/12/01 02:21:59;;;;;;;;;;;;;;;-2.12;84.86;96132.80;1758315;82;21506;-68
2022/12/01 02:24:36;;;;;;;10.73;6.30;;;;;;;-2.16;85.48;96139.13;1730302;82;20106;-68
2022/12/01 02:28:00;;;;;;;12.93;7.23;;;;;;;-2.19;85.82;96131.71;1755481;82;21031;-68
2022/12/01 02:31:00;;;;;;;12.30;6.45;;;;;;;-2.17;85.62;96125.28;1755643;82;21008;-68
2022/12/01 02:33:53;;;;;;;8.83;5.83;;;;;;;-2.28;85.38;96131.76;1755251;81;21063;-68
2022/12/01 02:36:28;;;;;;;10.03;6.30;;;;;;;-2.34;85.20;96130.20;1755664;81;21506;-68
2022/12/01 02:39:07;;;;;;;9.40;5.67;;;;;;;-2.44;85.16;96128.58;1753977;82;21578;-68
2022/12/01 02:41:44;;;;;;;11.53;5.93;;;;;;;-2.47;85.41;96124.58;1752653;82;21070;-68
2022/12/01 02:44:31;;;;;;;9.60;5.60;;;;;;;-2.42;85.93;96120.86;1752574;82;21047;-69
2022/12/01 02:47:03;;;;;;;13.90;8.17;;;;;;;-2.43;85.78;96126.86;1735891;82;21529;-69
2022/12/01 02:49:35;;;;;;;10.67;6.20;;;;;;;-2.37;86.42;96125.80;1752601;82;21055;-68
2022/12/01 02:52:05;;;;;;;11.50;6.87;;;;;;;-2.43;85.46;96120.41;1752652;82;21023;-69
2022/12/01 02:54:33;;;;;;;11.83;6.67;;;;;;;-2.53;85.13;96119.16;1752638;82;21024;-68
2022/12/01 02:57:00;;;;;;;10.60;6.50;;;;;;;-2.51;85.98;96122.69;1752465;82;21044;-68
2022/12/01 02:59:27;;;;;;;11.53;6.77;;;;;;;-2.57;85.39;96118.96;1752613;82;21039;-68
2022/12/01 03:02:05;;;;;;;13.93;7.83;;;;;;;-2.61;86.04;96123.14;1752497;82;21047;-68
2022/12/01 03:05:01;;;;;;;13.07;7.00;;;;;;;-2.49;86.60;96117.59;1752084;82;21028;-68
2022/12/01 03:07:59;;;;;;;16.47;8.00;;;;;;;-2.41;86.21;96130.39;1752546;82;21055;-67
2022/12/01 03:10:34;;;;;;;13.40;8.13;;;;;;;-2.48;85.54;96123.22;1752646;82;21474;-67
2022/12/01 03:13:18;;;;;;;14.40;8.60;;;;;;;-2.52;85.49;96122.61;1752291;82;21016;-67
2022/12/01 03:15:54;;;;;;;;;;;;;;;-2.55;85.77;96124.66;1755077;82;21009;-67
2022/12/01 03:18:38;;;;;;;19.10;9.97;;;;;;;-2.59;85.38;96128.37;1757818;81;20106;-67
2022/12/01 03:21:39;;;;;;;15.93;8.43;;;;;;;-2.61;85.45;96132.18;1752692;82;21024;-67
2022/12/01 03:24:14;;;;;;;20.53;10.53;;;;;;;-2.50;86.66;96128.31;1752719;82;21051;-67
2022/12/01 03:26:45;;;;;;;22.17;11.50;;;;;;;-2.43;86.14;96130.32;1747195;82;21051;-66
2022/12/01 03:29:23;;;;;;;23.77;11.07;;;;;;;-2.45;86.13;96121.63;1752887;82;21471;-67
2022/12/01 03:31:55;;;;;;;22.77;11.07;;;;;;;-2.45;85.76;96120.75;1752281;82;21036;-67
2022/12/01 03:34:44;;;;;;;23.37;10.97;;;;;;;-2.49;85.49;96123.63;1725814;82;21016;-67
2022/12/01 03:37:19;;;;;;;18.67;9.27;;;;;;;-2.56;85.48;96117.75;1752501;82;21506;-66
2022/12/01 03:39:48;;;;;;;18.17;9.93;;;;;;;-2.55;85.70;96118.62;1751093;82;21032;-67
2022/12/01 03:42:41;;;;;;;18.90;9.33;;;;;;;-2.58;85.56;96121.97;1752602;82;21502;-67
2022/12/01 03:45:16;;;;;;;14.43;7.53;;;;;;;-2.66;85.23;96120.78;1752612;82;21020;-67
2022/12/01 03:47:44;;;;;;;14.60;8.60;;;;;;;-2.75;85.78;96125.56;1751179;82;21091;-67
2022/12/01 03:50:13;;;;;;;19.53;9.10;;;;;;;-2.72;86.15;96120.52;1750225;82;21059;-67
2022/12/01 03:53:03;;;;;;;15.73;8.47;;;;;;;-2.70;85.87;96124.92;1752566;82;21019;-67
2022/12/01 03:55:36;;;;;;;17.53;8.67;;;;;;;-2.68;86.23;96123.70;1752570;82;21032;-66
2022/12/01 03:58:21;;;;;;;14.03;8.50;;;;;;;-2.68;85.62;96119.41;1752988;82;21179;-67
2022/12/01 04:00:52;;;;;;;14.83;7.93;;;;;;;-2.67;85.76;96125.08;1752802;82;21016;-67
2022/12/01 04:03:21;;;;;;;13.70;8.03;;;;;;;-2.64;86.08;96112.27;1752486;82;21000;-67
2022/12/01 04:05:48;;;;;;;18.13;9.23;;;;;;;-2.62;86.26;96114.52;1752738;82;21497;-67
2022/12/01 04:08:15;;;;;;;24.43;12.33;;;;;;;-2.57;86.32;96117.29;1752272;82;21077;-67
2022/12/01 04:10:43;;;;;;;25.83;13.10;;;;;;;-2.58;85.71;96106.87;1752708;82;21000;-67
2022/12/01 04:13:21;;;;;;;22.07;10.47;;;;;;;-2.53;85.85;96110.11;1752493;82;20980;-67
2022/12/01 04:15:45;;;;;;;24.00;10.37;;;;;;;-2.52;85.83;96112.28;1752572;82;21521;-67
2022/12/01 04:18:11;;;;;;;18.30;9.10;;;;;;;-2.48;85.79;96109.01;1752689;82;20984;-67
2022/12/01 04:20:38;;;;;;;21.40;10.87;;;;;;;-2.52;84.94;96109.69;1752469;82;21064;-67
2022/12/01 04:23:05;;;;;;;18.37;9.33;;;;;;;-2.54;85.10;96113.53;1752325;82;21621;-67
2022/12/01 04:25:33;;;;;;;12.23;8.53;;;;;;;-2.54;85.08;96108.78;1752303;82;21597;-67
2022/12/01 04:28:00;;;;;;;19.87;9.63;;;;;;;-2.44;86.13;96108.31;1752634;82;21432;-67
2022/12/01 04:30:27;;;;;;;14.27;8.80;;;;;;;-2.36;85.58;96104.74;1752711;82;21079;-67
2022/12/01 04:32:53;;;;;;;14.63;8.83;;;;;;;-2.40;84.63;96106.30;1752605;82;21066;-67
2022/12/01 04:35:20;;;;;;;17.27;8.40;;;;;;;-2.43;85.33;96107.48;1752388;82;21063;-67
2022/12/01 04:37:47;;;;;;;15.57;8.77;;;;;;;-2.46;84.79;96109.53;1752834;82;21028;-67
2022/12/01 04:40:14;;;;;;;15.87;8.90;;;;;;;-2.50;84.64;96111.94;1752330;82;21083;-67
2022/12/01 04:42:40;;;;;;;13.03;7.70;;;;;;;-2.52;85.10;96119.64;1755159;82;21016;-67
2022/12/01 04:45:09;;;;;;;14.90;8.10;;;;;;;-2.46;85.58;96112.54;1755465;81;21004;-67
2022/12/01 04:47:35;;;;;;;20.00;11.10;;;;;;;-2.45;85.32;96113.87;1755532;81;21449;-67
2022/12/01 04:50:03;;;;;;;35.80;17.43;;;;;;;-2.49;84.51;96117.17;1755751;81;21008;-67
2022/12/01 04:52:29;;;;;;;36.77;17.87;;;;;;;-2.56;84.28;96116.45;1755607;82;21495;-67
2022/12/01 04:54:56;;;;;;;16.00;9.33;;;;;;;-2.70;83.84;96116.30;1755635;81;21497;-66
2022/12/01 04:57:23;;;;;;;13.17;7.93;;;;;;;-2.72;84.75;96116.25;1755551;81;21003;-67
2022/12/01 04:59:49;;;;;;;16.73;8.87;;;;;;;-2.66;85.08;96119.08;1755387;81;21012;-67
2022/12/01 05:02:16;;;;;;;32.03;15.13;;;;;;;-2.62;85.66;96123.56;1755612;81;20988;-67
2022/12/01 05:04:46;;;;;;;31.73;15.90;;;;;;;-2.65;85.30;96117.36;1755017;81;21087;-67
2022/12/01 05:07:12;;;;;;;23.83;13.20;;;;;;;-2.65;85.20;96114.78;1755684;81;21043;-67
2022/12/01 05:09:39;;;;;;;26.83;13.70;;;;;;;-2.67;85.19;96119.91;1755907;81;21016;-67
2022/12/01 05:12:06;;;;;;;24.97;12.77;;;;;;;-2.68;85.09;96120.70;1755087;81;21550;-66
2022/12/01 05:14:33;;;;;;;21.77;10.77;;;;;;;-2.61;85.83;96114.09;1755276;82;21577;-67
2022/12/01 05:17:01;;;;;;;15.70;9.77;;;;;;;-2.56;85.27;96110.41;1755125;82;21114;-67
2022/12/01 05:22:13;;;;;;;9.97;5.90;;;;;;;-2.56;85.10;96111.28;1755269;82;21702;-67
2022/12/01 05:24:40;;;;;;;9.40;6.40;;;;;;;-2.60;85.32;96115.84;1755283;82;21031;-67
2022/12/01 05:27:07;;;;;;;21.20;11.30;;;;;;;-2.61;85.21;96114.09;1755421;82;21067;-67
2022/12/01 05:29:34;;;;;;;26.03;14.00;;;;;;;-2.64;85.06;96116.56;1755220;82;21078;-67
2022/12/01 05:32:01;;;;;;;24.70;14.87;;;;;;;-2.59;85.53;96113.76;1755536;81;21513;-67
2022/12/01 05:34:29;;;;;;;27.40;14.83;;;;;;;-2.64;84.43;96108.40;1755447;81;20980;-67
2022/12/01 05:36:55;;;;;;;26.60;15.80;;;;;;;-2.65;84.89;96111.78;1755796;81;21048;-67
2022/12/01 05:39:22;;;;;;;25.73;15.30;;;;;;;-2.61;85.12;96111.52;1755483;82;21005;-67
2022/12/01 05:41:48;;;;;;;26.23;15.17;;;;;;;-2.58;85.11;96115.92;1753904;82;21028;-67
2022/12/01 05:44:15;;;;;;;18.77;9.70;;;;;;;-2.58;84.28;96112.92;1752435;82;21111;-67
2022/12/01 05:46:42;;;;;;;17.57;8.47;;;;;;;-2.56;85.06;96119.45;1752543;82;21027;-67
2022/12/01 05:49:08;;;;;;;13.77;8.97;;;;;;;-2.51;85.33;96116.64;1752533;82;20996;-67
2022/12/01 05:51:35;;;;;;;16.57;9.03;;;;;;;-2.52;84.43;96122.61;1752541;82;21026;-67
2022/12/01 05:54:02;;;;;;;27.33;9.97;;;;;;;-2.55;84.43;96121.20;1752560;82;21051;-67
2022/12/01 05:56:29;;;;;;;16.53;9.90;;;;;;;-2.61;84.03;96113.68;1752656;82;20981;-67
2022/12/01 05:58:56;;;;;;;16.30;8.63;;;;;;;-2.68;83.96;96116.83;1752194;82;21103;-68
2022/12/01 06:01:23;;;;;;;19.27;9.80;;;;;;;-2.73;83.62;96119.64;1752384;82;21019;-67
2022/12/01 06:03:49;;;;;;;11.73;6.13;;;;;;;-2.83;83.37;96114.92;1752168;82;21518;-67
2022/12/01 06:06:16;;;;;;;7.70;4.47;;;;;;;-2.86;83.99;96115.68;1750082;82;21028;-67
2022/12/01 06:08:43;;;;;;;9.93;5.17;;;;;;;-2.80;84.41;96113.75;1752649;82;21485;-67
2022/12/01 06:11:09;;;;;;;14.47;7.83;;;;;;;-2.76;84.41;96110.48;1752633;82;21035;-67
2022/12/01 06:13:37;;;;;;;14.63;7.67;;;;;;;-2.70;85.00;96113.72;1752174;82;21068;-67
2022/12/01 06:16:06;;;;;;;6.40;4.00;;;;;;;-2.72;84.25;96105.92;1752545;82;21035;-67
2022/12/01 06:18:35;;;;;;;7.37;5.00;;;;;;;-2.70;84.76;96101.67;1752446;82;21007;-66
2022/12/01 06:21:05;;;;;;;8.63;5.27;;;;;;;-2.64;84.79;96105.81;1752443;82;21023;-67
2022/12/01 06:23:32;;;;;;;12.50;6.73;;;;;;;-2.65;84.41;96109.20;1752658;82;21044;-66
2022/12/01 06:25:59;;;;;;;14.37;7.90;;;;;;;-2.65;84.56;96108.33;1752477;82;21032;-67
2022/12/01 06:28:26;;;;;;;18.03;10.90;;;;;;;-2.63;84.76;96111.44;1752282;82;20996;-66
2022/12/01 06:30:53;;;;;;;21.57;11.47;;;;;;;-2.55;84.76;96113.45;1752468;82;21351;-66
2022/12/01 06:33:20;;;;;;;12.47;7.07;;;;;;;-2.52;84.83;96108.40;1752485;82;21126;-67
2022/12/01 06:35:47;;;;;;;15.83;9.63;;;;;;;-2.49;84.36;96104.25;1752207;82;21083;-67
2022/12/01 06:38:14;;;;;;;12.20;7.00;;;;;;;-2.41;84.69;96108.43;1752608;82;21502;-67
2022/12/01 06:40:43;;;;;;;7.70;4.27;;;;;;;-2.44;84.36;96112.19;1752365;82;21032;-67
2022/12/01 06:43:09;;;;;;;4.53;2.60;;;;;;;-2.45;84.39;96103.95;1749976;82;21557;-67
2022/12/01 06:45:36;;;;;;;6.43;3.43;;;;;;;-2.38;84.64;96111.55;1752318;82;21039;-67
2022/12/01 06:48:03;;;;;;;8.20;4.20;;;;;;;-2.39;84.33;96108.09;1752672;82;21534;-67
2022/12/01 06:50:30;;;;;;;5.57;3.13;;;;;;;-2.43;84.36;96104.48;1752459;82;20977;-67
2022/12/01 06:52:56;;;;;;;4.93;3.10;;;;;;;-2.40;84.85;96116.22;1752852;82;20996;-67
2022/12/01 06:55:24;;;;;;;5.23;3.00;;;;;;;-2.37;84.74;96112.00;1752767;82;21510;-67
2022/12/01 06:57:51;;;;;;;26.30;16.10;;;;;;;-2.29;85.44;96101.16;1752418;82;21068;-67
2022/12/01 07:00:19;;;;;;;25.10;13.90;;;;;;;-2.24;85.06;96102.22;1752939;82;21509;-67
2022/12/01 07:02:46;;;;;;;12.73;6.43;;;;;;;-2.16;85.36;96099.05;1752461;82;21023;-67
2022/12/01 07:05:12;;;;;;;27.53;15.60;;;;;;;-2.08;85.39;96097.63;1752402;82;21058;-67
2022/12/01 07:07:39;;;;;;;13.97;7.83;;;;;;;-2.00;85.55;96096.20;1752754;82;21012;-67
2022/12/01 07:10:09;;;;;;;15.13;9.10;;;;;;;-1.97;85.23;96094.63;1752759;82;21059;-68
2022/12/01 07:12:36;;;;;;;24.67;14.67;;;;;;;-1.97;85.09;96092.44;1752764;82;21019;-67
2022/12/01 07:15:05;;;;;;;24.00;15.23;;;;;;;-1.88;85.43;96094.50;1752857;82;21044;-67
2022/12/01 07:17:31;;;;;;;22.00;13.90;;;;;;;-1.76;85.72;96097.54;1752694;82;21474;-67
2022/12/01 07:19:58;;;;;;;24.97;13.77;;;;;;;-1.67;85.68;96090.52;1752276;82;21092;-67
2022/12/01 07:22:25;;;;;;;19.97;11.50;;;;;;;-1.61;85.27;96101.10;1752929;82;20976;-67
2022/12/01 07:24:52;;;;;;;27.23;18.13;;;;;;;-1.52;85.43;96092.35;1750213;82;21024;-68
2022/12/01 07:27:18;;;;;;;25.87;15.93;;;;;;;-1.36;86.12;96092.47;1752513;82;21032;-67
2022/12/01 07:29:45;;;;;;;31.13;17.90;;;;;;;-1.28;85.42;96094.06;1752755;82;21466;-67
2022/12/01 07:32:12;;;;;;;29.93;17.60;;;;;;;-1.22;85.30;96087.37;1749926;82;21004;-68
2022/12/01 07:34:38;;;;;;;32.17;19.13;;;;;;;-1.17;84.80;96086.23;1752630;82;21016;-67
2022/12/01 07:37:05;;;;;;;36.37;20.07;;;;;;;-1.20;84.68;96087.02;1752527;82;21454;-68
2022/12/01 07:39:31;;;;;;;34.67;19.10;;;;;;;-1.19;85.07;96076.23;1752700;82;21031;-67
2022/12/01 07:41:58;;;;;;;31.73;17.27;;;;;;;-1.13;84.93;96074.75;1753198;82;21024;-67
2022/12/01 07:44:25;;;;;;;27.37;18.43;;;;;;;-0.99;85.58;96071.31;1755655;82;21047;-67
2022/12/01 07:46:51;;;;;;;24.40;15.93;;;;;;;-0.94;85.28;96073.64;1755661;81;21501;-67
2022/12/01 07:49:18;;;;;;;24.40;14.00;;;;;;;-0.78;85.77;96068.95;1755200;82;21589;-67
2022/12/01 07:51:45;;;;;;;26.80;17.07;;;;;;;-0.66;85.25;96073.24;1755601;82;21059;-67
2022/12/01 07:54:16;;;;;;;17.50;11.27;;;;;;;-0.59;85.34;96063.55;1755684;82;21027;-66
2022/12/01 07:56:43;;;;;;;17.80;11.67;;;;;;;-0.40;86.05;96068.91;1755774;81;20992;-66
2022/12/01 07:59:10;;;;;;;23.13;14.70;;;;;;;-0.31;85.46;96067.00;1755572;82;21000;-67
2022/12/01 08:01:37;;;;;;;23.00;13.07;;;;;;;-0.27;85.16;96069.73;1755675;81;21473;-67
2022/12/01 08:04:04;;;;;;;26.63;15.57;;;;;;;-0.16;85.26;96073.06;1755635;81;21021;-67
2022/12/01 08:06:30;;;;;;;22.57;13.40;;;;;;;-0.06;85.48;96069.91;1755516;82;21553;-67
2022/12/01 08:08:57;;;;;;;23.03;13.47;;;;;;;-0.07;85.15;96066.88;1755788;82;20940;-67
2022/12/01 08:11:28;;;;;;;19.63;12.77;;;;;;;-0.15;85.43;96067.94;1755439;82;21074;-67
2022/12/01 08:13:55;;;;;;;19.43;10.77;;;;;;;-0.07;85.67;96068.17;1755515;82;21031;-67
2022/12/01 08:16:24;;;;;;;30.80;18.27;;;;;;;0.08;86.24;96061.26;1755510;82;21481;-67
2022/12/01 08:18:51;;;;;;;27.63;17.47;;;;;;;0.23;86.64;96061.70;1755473;82;21473;-67
2022/12/01 08:21:21;;;;;;;23.27;14.90;;;;;;;0.49;87.09;96053.33;1755222;82;21122;-67
2022/12/01 08:23:57;;;;;;;20.47;13.33;;;;;;;0.76;86.59;96054.92;1755713;81;20979;-67
2022/12/01 08:26:25;;;;;;;18.30;12.27;;;;;;;0.99;86.67;96051.20;1755368;81;21035;-67
2022/12/01 08:28:52;;;;;;;14.60;9.47;;;;;;;1.17;85.75;96039.51;1755652;81;21012;-67
2022/12/01 08:31:28;;;;;;;24.87;14.00;;;;;;;1.27;84.83;96037.16;1755540;81;21547;-67
2022/12/01 08:33:56;;;;;;;20.47;12.70;;;;;;;1.36;84.91;96035.62;1755244;81;21016;-68
2022/12/01 08:36:24;;;;;;;28.20;15.60;;;;;;;1.38;83.84;96036.11;1755635;82;21458;-67
2022/12/01 08:38:53;;;;;;;28.57;16.67;;;;;;;1.37;84.04;96030.47;1755681;82;21023;-67
2022/12/01 08:41:20;;;;;;;55.97;31.27;;;;;;;1.42;84.10;96032.75;1756005;82;21474;-67
2022/12/01 08:43:47;;;;;;;33.80;20.27;;;;;;;1.51;83.74;96033.38;1752586;81;21004;-67
2022/12/01 08:46:14;;;;;;;35.47;19.57;;;;;;;1.63;83.82;96032.36;1752530;82;21090;-67
2022/12/01 08:48:41;;;;;;;22.63;14.20;;;;;;;1.77;83.34;96034.42;1752498;82;21004;-67
2022/12/01 08:51:15;;;;;;;38.13;22.50;;;;;;;1.86;81.83;96038.50;1752211;82;21091;-67
2022/12/01 08:53:45;;;;;;;34.20;20.87;;;;;;;1.99;82.85;96031.45;1752337;82;20992;-67
2022/12/01 08:56:23;;;;;;;25.07;16.20;;;;;;;2.11;82.11;96031.67;1752504;82;21028;-67
2022/12/01 08:58:50;;;;;;;27.63;17.07;;;;;;;2.19;81.63;96029.23;1752649;82;20965;-67
2022/12/01 09:01:18;;;;;;;23.57;13.93;;;;;;;2.29;81.30;96030.30;1752540;82;21020;-68
2022/12/01 09:03:45;;;;;;;26.23;14.63;;;;;;;2.34;80.43;96027.36;1752712;82;21112;-68
2022/12/01 09:06:19;;;;;;;19.83;12.27;;;;;;;2.44;81.27;96019.31;1752635;82;21063;-67
2022/12/01 09:08:46;;;;;;;16.32;10.45;;;;;;;2.58;81.56;96010.05;1752472;82;20992;-67
2022/12/01 09:11:17;;;;;;;16.23;10.00;;;;;;;2.73;81.84;96006.85;1752712;82;21465;-67
2022/12/01 09:13:45;;;;;;;19.73;11.30;;;;;;;2.86;81.83;96006.64;1725492;82;21379;-67
2022/12/01 09:16:15;;;;;;;28.83;17.73;;;;;;;2.96;80.38;96000.73;1752592;82;21003;-67
2022/12/01 09:18:44;;;;;;;34.90;19.77;;;;;;;3.00;79.59;95994.74;1752447;82;21023;-67
2022/12/01 09:21:18;;;;;;;34.17;18.53;;;;;;;3.09;79.83;95999.22;1752511;82;21009;-67
2022/12/01 09:23:45;;;;;;;42.50;25.83;;;;;;;3.06;77.95;95996.13;1752494;82;21563;-67
2022/12/01 09:26:17;;;;;;;26.50;15.40;;;;;;;3.18;78.55;95990.25;1752670;82;21016;-67
2022/12/01 09:28:42;;;;;;;23.87;15.90;;;;;;;3.25;77.76;95994.69;1752696;82;21035;-67
2022/12/01 09:31:11;;;;;;;24.10;14.33;;;;;;;3.38;77.99;95990.58;1752489;82;20956;-67
2022/12/01 09:33:38;;;;;;;16.53;11.17;;;;;;;3.48;77.81;95989.86;1752508;82;21016;-67
2022/12/01 09:36:07;;;;;;;18.83;12.23;;;;;;;3.63;77.91;95976.16;1752678;82;21004;-67
2022/12/01 09:38:36;;;;;;;16.40;9.43;;;;;;;3.78;77.03;95984.20;1752481;82;21083;-67
2022/12/01 09:41:38;;;;;;;12.17;8.80;;;;;;;3.97;77.69;95986.63;1752826;82;20999;-67
2022/12/01 09:44:46;;;;;;;12.00;8.47;;;;;;;4.28;77.95;95981.38;1754999;82;21584;-68
2022/12/01 09:47:24;;;;;;;21.13;10.37;;;;;;;4.55;76.79;95977.30;1755536;82;21049;-68
2022/12/01 09:50:05;;;;;;;17.00;9.20;;;;;;;4.81;76.23;95972.33;1751066;82;21020;-68
2022/12/01 09:52:46;;;;;;;14.50;9.30;;;;;;;5.01;74.55;95968.59;1755635;81;20988;-68
2022/12/01 09:55:20;;;;;;;15.80;9.47;;;;;;;5.15;74.35;95966.98;1755608;81;20988;-68
2022/12/01 09:57:51;;;;;;;13.70;9.33;;;;;;;5.24;74.28;95965.30;1755424;81;21018;-68
2022/12/01 10:00:28;;;;;;;12.90;8.97;;;;;;;5.37;74.22;95964.55;1723153;82;21016;-68
2022/12/01 10:03:22;;;;;;;17.17;9.50;;;;;;;5.42;72.72;95961.53;1755291;82;21000;-66
2022/12/01 10:05:54;;;;;;;13.48;8.73;;;;;;;5.67;73.06;95962.58;1755293;81;21502;-66
2022/12/01 10:08:29;;;;;;;13.45;8.93;;;;;;;6.02;72.11;95971.98;1755187;82;21063;-65
2022/12/01 10:11:14;;;;;;;13.50;9.75;;;;;;;6.47;72.51;95956.41;1755466;81;21023;-65
2022/12/01 10:13:41;;;;;;;21.45;14.28;;;;;;;6.72;67.95;95953.42;1754587;82;21035;-65
2022/12/01 10:16:16;;;;;;;16.32;11.28;;;;;;;6.91;69.08;95949.97;1755409;82;20976;-65
2022/12/01 10:19:06;;;;;;;19.12;13.32;;;;;;;7.15;67.87;95951.72;1755464;81;21043;-65
2022/12/01 10:22:05;;;;;;;24.12;17.10;;;;;;;7.42;65.55;95946.48;1755522;81;21486;-65
2022/12/01 10:24:55;;;;;;;15.18;11.05;;;;;;;7.52;65.85;95945.60;1733297;82;21521;-65
2022/12/01 10:27:38;;;;;;;11.12;9.18;;;;;;;7.73;63.63;95940.30;1755168;82;21027;-65
2022/12/01 10:30:11;;;;;;;13.00;9.73;;;;;;;7.73;61.56;95944.69;1755206;82;21060;-66
2022/12/01 10:32:55;;;;;;;19.48;14.45;;;;;;;7.97;63.90;95942.45;1755352;82;21031;-66
2022/12/01 10:35:26;;;;;;;16.75;11.97;;;;;;;8.13;61.50;95939.33;1755500;82;20984;-66
2022/12/01 10:38:01;;;;;;;14.65;11.08;;;;;;;8.24;60.59;95938.42;1755487;82;21019;-66
2022/12/01 10:40:33;;;;;;;13.32;9.75;;;;;;;8.33;60.94;95942.75;1755409;81;21047;-66
2022/12/01 10:42:57;;;;;;;21.95;13.13;;;;;;;8.38;60.36;95944.91;1754596;82;21028;-66
2022/12/01 10:45:31;;;;;;;12.73;8.63;;;;;;;8.69;61.11;95938.20;1755601;81;21040;-66
2022/12/01 10:48:21;;;;;;;16.70;11.38;;;;;;;8.93;57.75;95938.52;1755486;82;21020;-65
2022/12/01 10:50:58;;;;;;;11.35;8.85;;;;;;;8.99;57.48;95933.64;1755346;82;21011;-65
2022/12/01 10:53:32;;;;;;;11.95;8.63;;;;;;;9.22;58.54;95935.69;1755444;82;21494;-65
2022/12/01 10:56:20;;;;;;;11.60;8.60;;;;;;;9.27;56.76;95929.03;1755278;81;21028;-65
2022/12/01 10:58:57;;;;;;;10.98;8.85;;;;;;;9.25;56.88;95930.84;1755519;82;21502;-65
2022/12/01 11:01:33;;;;;;;11.85;9.25;;;;;;;9.44;55.87;95927.59;1755410;82;21007;-65
2022/12/01 11:04:06;;;;;;;25.02;22.15;;;;;;;9.59;56.09;95919.99;1755625;81;21024;-65
2022/12/01 11:06:33;;;;;;;20.95;18.40;;;;;;;9.34;55.23;95926.79;1755473;82;21016;-65
2022/12/01 11:09:05;;;;;;;9.83;8.58;;;;;;;9.05;56.61;95931.86;1755451;81;21148;-65
2022/12/01 11:11:38;;;;;;;14.80;11.57;;;;;;;8.92;57.18;95927.98;1755717;81;20999;-65
2022/12/01 11:14:22;;;;;;;17.10;13.50;;;;;;;8.97;57.88;95931.46;1755461;82;21028;-66
2022/12/01 11:16:52;;;;;;;10.40;8.25;;;;;;;9.00;57.06;95924.44;1755635;81;20971;-67
2022/12/01 11:19:31;;;;;;;9.63;7.78;;;;;;;9.09;57.31;95923.03;1755428;82;21016;-67
2022/12/01 11:22:02;;;;;;;11.57;8.33;;;;;;;9.04;55.67;95922.64;1755460;81;21031;-67
2022/12/01 11:24:42;;;;;;;9.63;7.83;;;;;;;9.05;57.12;95919.14;1755476;81;20988;-67
2022/12/01 11:27:18;;;;;;;10.30;8.00;;;;;;;8.99;55.74;95914.77;1744817;82;21469;-68
2022/12/01 11:29:50;;;;;;;11.33;7.80;;;;;;;9.15;56.53;95913.34;1755036;81;21051;-68
2022/12/01 11:32:31;;;;;;;13.70;8.35;;;;;;;9.15;55.95;95914.23;1755643;82;21019;-67
2022/12/01 11:35:02;;;;;;;11.73;8.88;;;;;;;9.41;56.67;95906.55;1748364;82;20988;-67
2022/12/01 11:37:37;;;;;;;15.38;9.05;;;;;;;9.56;53.61;95896.32;1755420;82;21031;-68
2022/12/01 11:40:20;;;;;;;11.73;9.23;;;;;;;9.58;53.96;95899.37;1755369;82;21541;-67
2022/12/01 11:42:49;;;;;;;;;;;;;;;9.58;52.90;95909.04;1754764;82;21020;-67
2022/12/01 11:45:27;;;;;;;10.55;8.25;;;;;;;9.36;53.72;95907.04;1755531;81;20135;-66
2022/12/01 11:48:19;;;;;;;11.05;7.67;;;;;;;9.00;54.44;95902.06;1755351;82;21016;-67
2022/12/01 11:51:13;;;;;;;11.80;8.50;;;;;;;8.87;55.19;95903.91;1754994;82;21004;-67
2022/12/01 11:53:42;;;;;;;10.75;7.67;;;;;;;8.84;55.43;95913.16;1755725;81;21501;-67